createdAt,value
2023-10-27T00:00:09.652Z,75.05
2023-10-27T00:02:39.374Z,74.95
2023-10-27T00:05:07.269Z,75.15
2023-10-27T00:07:33.755Z,75.07
2023-10-27T00:10:00.406Z,75.42
2023-10-27T00:12:27.590Z,75.02
2023-10-27T00:14:54.055Z,75.07
2023-10-27T00:17:20.737Z,74.99
2023-10-27T00:19:47.203Z,74.97
2023-10-27T00:22:13.734Z,75.18
2023-10-27T00:24:40.166Z,74.98
2023-10-27T00:27:06.596Z,74.80
2023-10-27T00:29:32.988Z,74.95
2023-10-27T00:31:59.430Z,75.10
2023-10-27T00:34:26.068Z,74.94
2023-10-27T00:36:52.604Z,74.78
2023-10-27T00:39:19.034Z,75.19
2023-10-27T00:41:45.465Z,74.76
2023-10-27T00:44:11.941Z,75.08
2023-10-27T00:46:38.936Z,74.99
2023-10-27T00:49:05.591Z,75.25
2023-10-27T00:51:32.195Z,74.96
2023-10-27T00:53:59.854Z,75.17
2023-10-27T00:56:26.750Z,75.15
2023-10-27T00:58:53.353Z,74.94
2023-10-27T01:01:20.658Z,75.15
2023-10-27T01:03:47.154Z,74.99
2023-10-27T01:06:13.622Z,75.02
2023-10-27T01:08:40.578Z,75.03
2023-10-27T01:11:07.978Z,74.82
2023-10-27T01:13:34.428Z,74.98
2023-10-27T01:16:00.953Z,75.19
2023-10-27T01:18:27.436Z,74.95
2023-10-27T01:20:54.010Z,75.01
2023-10-27T01:23:20.396Z,74.73
2023-10-27T01:25:46.776Z,74.66
2023-10-27T01:28:13.373Z,74.77
2023-10-27T01:30:39.791Z,74.62
2023-10-27T01:33:06.226Z,74.68
2023-10-27T01:35:32.704Z,75.01
2023-10-27T01:37:59.214Z,74.89
2023-10-27T01:40:25.658Z,74.84
2023-10-27T01:42:52.142Z,75.03
2023-10-27T01:45:18.660Z,74.87
2023-10-27T01:47:45.095Z,74.93
2023-10-27T01:50:11.597Z,74.68
2023-10-27T01:52:39.462Z,75.00
2023-10-27T01:55:08.343Z,74.86
2023-10-27T01:57:34.764Z,74.91
2023-10-27T02:00:01.172Z,74.81
2023-10-27T02:02:27.628Z,74.95
2023-10-27T02:04:54.139Z,74.89
2023-10-27T02:07:25.091Z,74.93
2023-10-27T02:09:52.600Z,74.89
2023-10-27T02:12:19.086Z,74.86
2023-10-27T02:14:45.510Z,74.78
2023-10-27T02:17:12.415Z,75.15
2023-10-27T02:19:38.931Z,74.84
2023-10-27T02:22:05.484Z,74.97
2023-10-27T02:24:31.983Z,74.76
2023-10-27T02:26:59.442Z,74.84
2023-10-27T02:29:26.569Z,74.96
2023-10-27T02:31:53.179Z,74.92
2023-10-27T02:34:19.698Z,75.07
2023-10-27T02:36:46.112Z,74.58
2023-10-27T02:39:12.715Z,74.66
2023-10-27T02:41:39.156Z,74.84
2023-10-27T02:44:05.913Z,74.98
2023-10-27T02:46:36.928Z,74.65
2023-10-27T02:49:05.041Z,74.68
2023-10-27T02:51:32.063Z,74.90
2023-10-27T02:53:58.897Z,74.75
2023-10-27T02:56:25.733Z,74.69
2023-10-27T02:58:52.493Z,74.88
2023-10-27T03:01:19.129Z,74.68
2023-10-27T03:03:46.299Z,74.79
2023-10-27T03:06:13.476Z,74.97
2023-10-27T03:08:42.280Z,74.77
2023-10-27T03:11:09.434Z,74.87
2023-10-27T03:13:36.365Z,74.87
2023-10-27T03:16:04.277Z,74.78
2023-10-27T03:18:30.892Z,74.89
2023-10-27T03:21:01.889Z,74.89
2023-10-27T03:23:29.022Z,74.88
2023-10-27T03:25:55.558Z,75.32
2023-10-27T03:28:22.463Z,74.86
2023-10-27T03:30:51.868Z,74.77
2023-10-27T03:33:18.939Z,74.71
2023-10-27T03:35:45.872Z,74.80
2023-10-27T03:38:13.419Z,74.82
2023-10-27T03:40:40.769Z,75.18
2023-10-27T03:43:07.933Z,75.13
2023-10-27T03:45:37.673Z,74.91
2023-10-27T03:48:04.670Z,74.77
2023-10-27T03:50:31.163Z,74.59
2023-10-27T03:52:57.596Z,74.76
2023-10-27T03:55:24.137Z,74.75
2023-10-27T03:57:51.554Z,74.51
2023-10-27T04:00:18.362Z,74.58
2023-10-27T04:02:46.676Z,74.60
2023-10-27T04:05:14.114Z,74.63
2023-10-27T04:07:40.641Z,74.37
2023-10-27T04:10:07.441Z,74.64
2023-10-27T04:12:34.074Z,74.54
2023-10-27T04:15:00.873Z,74.26
2023-10-27T04:17:27.309Z,74.39
2023-10-27T04:19:53.768Z,74.55
2023-10-27T04:22:20.439Z,74.06
2023-10-27T04:24:46.852Z,74.41
2023-10-27T04:27:13.221Z,74.24
2023-10-27T04:29:39.593Z,74.29
2023-10-27T04:32:06.187Z,74.37
2023-10-27T04:34:32.655Z,74.24
2023-10-27T04:36:59.167Z,74.33
2023-10-27T04:39:25.587Z,74.45
2023-10-27T04:41:51.970Z,74.40
2023-10-27T04:44:23.571Z,74.32
2023-10-27T04:46:51.930Z,74.37
2023-10-27T04:49:19.173Z,74.20
2023-10-27T04:51:46.638Z,74.45
2023-10-27T04:54:13.525Z,74.58
2023-10-27T04:56:39.992Z,74.56
2023-10-27T04:59:06.413Z,74.68
2023-10-27T05:01:32.900Z,74.31
2023-10-27T05:03:59.448Z,74.24
2023-10-27T05:06:25.925Z,74.60
2023-10-27T05:08:52.338Z,74.38
2023-10-27T05:11:19.522Z,74.49
2023-10-27T05:13:46.203Z,74.37
2023-10-27T05:16:12.896Z,74.38
2023-10-27T05:18:39.442Z,74.38
2023-10-27T05:21:05.972Z,74.51
2023-10-27T05:23:32.387Z,74.33
2023-10-27T05:25:58.850Z,74.60
2023-10-27T05:28:25.473Z,74.42
2023-10-27T05:30:53.047Z,74.31
2023-10-27T05:33:19.772Z,74.40
2023-10-27T05:35:46.296Z,74.44
2023-10-27T05:38:12.801Z,74.37
2023-10-27T05:40:40.413Z,74.39
2023-10-27T05:43:07.530Z,74.65
2023-10-27T05:45:34.045Z,74.56
2023-10-27T05:48:00.598Z,74.62
2023-10-27T05:50:27.982Z,74.66
2023-10-27T05:52:54.496Z,74.40
2023-10-27T05:55:21.028Z,74.69
2023-10-27T05:57:47.695Z,74.82
2023-10-27T06:00:14.288Z,74.60
2023-10-27T06:02:40.719Z,74.10
2023-10-27T06:05:07.405Z,74.56
2023-10-27T06:07:33.988Z,74.40
2023-10-27T06:10:01.266Z,74.48
2023-10-27T06:12:27.841Z,74.79
2023-10-27T06:14:54.278Z,74.48
2023-10-27T06:17:20.756Z,74.61
2023-10-27T06:19:50.981Z,74.47
2023-10-27T06:22:24.824Z,74.51
2023-10-27T06:24:51.243Z,74.82
2023-10-27T06:27:17.671Z,74.64
2023-10-27T06:29:44.415Z,74.63
2023-10-27T06:32:11.307Z,74.50
2023-10-27T06:34:37.785Z,74.70
2023-10-27T06:37:04.577Z,74.49
2023-10-27T06:39:31.236Z,74.63
2023-10-27T06:41:58.124Z,74.88
2023-10-27T06:44:25.130Z,74.73
2023-10-27T06:46:51.823Z,74.58
2023-10-27T06:49:18.377Z,74.80
2023-10-27T06:51:45.134Z,74.84
2023-10-27T06:54:11.536Z,75.19
2023-10-27T06:56:38.071Z,74.79
2023-10-27T06:59:04.726Z,74.72
2023-10-27T07:01:31.230Z,74.68
2023-10-27T07:03:58.018Z,74.83
2023-10-27T07:06:25.696Z,74.94
2023-10-27T07:08:52.293Z,74.77
2023-10-27T07:11:18.731Z,74.62
2023-10-27T07:13:45.180Z,74.50
2023-10-27T07:16:11.613Z,74.21
2023-10-27T07:18:38.130Z,74.58
2023-10-27T07:21:07.824Z,74.55
2023-10-27T07:23:34.460Z,74.56
2023-10-27T07:26:00.952Z,74.40
2023-10-27T07:28:27.434Z,74.47
2023-10-27T07:30:53.804Z,74.27
2023-10-27T07:33:20.306Z,74.32
2023-10-27T07:35:48.990Z,74.17
2023-10-27T07:38:15.524Z,74.16
2023-10-27T07:40:43.661Z,73.95
2023-10-27T07:43:10.274Z,73.75
2023-10-27T07:45:36.735Z,73.77
2023-10-27T07:48:04.303Z,73.78
2023-10-27T07:50:30.921Z,73.83
2023-10-27T07:52:57.319Z,73.72
2023-10-27T07:55:23.924Z,73.54
2023-10-27T07:57:50.394Z,73.33
2023-10-27T08:00:17.086Z,73.36
2023-10-27T08:02:43.606Z,73.28
2023-10-27T08:05:10.307Z,73.59
2023-10-27T08:07:37.966Z,73.36
2023-10-27T08:10:08.662Z,73.44
2023-10-27T08:12:35.673Z,73.29
2023-10-27T08:15:06.369Z,73.40
2023-10-27T08:17:37.271Z,73.22
2023-10-27T08:20:05.041Z,73.38
2023-10-27T08:22:34.110Z,73.06
2023-10-27T08:25:00.708Z,73.19
2023-10-27T08:27:27.343Z,73.31
2023-10-27T08:29:57.937Z,73.42
2023-10-27T08:32:24.430Z,73.43
2023-10-27T08:34:50.945Z,73.56
2023-10-27T08:37:20.332Z,73.79
2023-10-27T08:39:46.869Z,74.34
2023-10-27T08:42:13.804Z,73.88
2023-10-27T08:44:42.845Z,73.74
2023-10-27T08:47:09.466Z,73.73
2023-10-27T08:49:35.938Z,74.09
2023-10-27T08:52:03.616Z,73.71
2023-10-27T08:54:33.451Z,73.52
2023-10-27T08:56:59.864Z,73.57
2023-10-27T08:59:26.376Z,73.65
2023-10-27T09:01:54.870Z,73.55
2023-10-27T09:04:25.107Z,73.57
2023-10-27T09:06:51.790Z,73.69
2023-10-27T09:09:19.895Z,73.62
2023-10-27T09:11:48.798Z,73.45
2023-10-27T09:14:28.141Z,73.52
2023-10-27T09:17:08.864Z,73.35
2023-10-27T09:19:36.265Z,73.35
2023-10-27T09:22:06.922Z,73.64
2023-10-27T09:24:33.818Z,73.64
2023-10-27T09:27:01.144Z,73.89
2023-10-27T09:29:28.304Z,73.82
2023-10-27T09:31:55.123Z,73.24
2023-10-27T09:34:26.586Z,73.44
2023-10-27T09:36:58.623Z,73.18
2023-10-27T09:39:26.615Z,73.39
2023-10-27T09:42:12.514Z,73.51
2023-10-27T09:44:52.619Z,73.72
2023-10-27T09:47:35.432Z,73.58
2023-10-27T09:50:07.506Z,73.58
2023-10-27T09:52:35.320Z,73.57
2023-10-27T09:55:14.702Z,73.51
2023-10-27T09:57:45.365Z,73.61
2023-10-27T10:00:14.927Z,73.38
2023-10-27T10:02:45.472Z,73.67
2023-10-27T10:05:12.898Z,73.63
2023-10-27T10:07:42.799Z,73.51
2023-10-27T10:10:35.893Z,73.74
2023-10-27T10:13:17.268Z,73.76
2023-10-27T10:15:45.690Z,73.61
2023-10-27T10:18:20.957Z,73.71
2023-10-27T10:20:50.674Z,73.51
2023-10-27T10:23:18.074Z,73.63
2023-10-27T10:25:57.702Z,73.55
2023-10-27T10:28:25.978Z,73.58
2023-10-27T10:31:07.871Z,73.50
2023-10-27T10:33:37.540Z,73.69
2023-10-27T10:36:13.314Z,73.75
2023-10-27T10:38:44.718Z,73.62
2023-10-27T10:41:11.449Z,73.70
2023-10-27T10:43:38.156Z,73.68
2023-10-27T10:46:06.278Z,73.62
2023-10-27T10:48:35.609Z,73.59
2023-10-27T10:51:12.466Z,73.56
2023-10-27T10:53:39.465Z,73.64
2023-10-27T10:56:06.556Z,73.56
2023-10-27T10:58:38.425Z,73.95
2023-10-27T11:01:05.561Z,73.79
2023-10-27T11:03:34.784Z,73.61
2023-10-27T11:06:06.631Z,73.69
2023-10-27T11:08:41.168Z,73.67
2023-10-27T11:11:14.761Z,73.72
2023-10-27T11:13:49.136Z,73.69
2023-10-27T11:16:16.245Z,73.68
2023-10-27T11:18:44.580Z,73.94
2023-10-27T11:21:21.846Z,73.88
2023-10-27T11:23:49.499Z,73.89
2023-10-27T11:26:17.881Z,73.78
2023-10-27T11:28:46.194Z,73.91
2023-10-27T11:31:26.793Z,73.83
2023-10-27T11:34:00.315Z,73.82
2023-10-27T11:36:43.981Z,73.80
2023-10-27T11:39:24.233Z,73.63
2023-10-27T11:42:04.483Z,73.68
2023-10-27T11:44:35.666Z,73.81
2023-10-27T11:47:02.260Z,73.46
2023-10-27T11:49:30.186Z,73.70
2023-10-27T11:51:57.949Z,73.68
2023-10-27T11:54:25.559Z,73.75
2023-10-27T11:56:52.714Z,73.46
2023-10-27T11:59:20.096Z,73.64
2023-10-27T12:01:46.705Z,73.51
2023-10-27T12:04:13.667Z,73.68
2023-10-27T12:06:41.392Z,73.77
2023-10-27T12:09:08.641Z,73.55
2023-10-27T12:11:35.754Z,73.45
2023-10-27T12:14:02.882Z,73.71
2023-10-27T12:16:30.521Z,73.62
2023-10-27T12:18:58.149Z,73.66
2023-10-27T12:21:27.948Z,73.78
2023-10-27T12:23:54.829Z,73.69
2023-10-27T12:26:22.169Z,73.60
2023-10-27T12:28:49.201Z,73.48
2023-10-27T12:31:15.816Z,74.02
2023-10-27T12:33:45.258Z,73.91
2023-10-27T12:36:13.417Z,74.03
2023-10-27T12:38:40.576Z,74.12
2023-10-27T12:41:08.347Z,73.99
2023-10-27T12:43:35.072Z,74.32
2023-10-27T12:46:05.722Z,74.29
2023-10-27T12:48:33.580Z,74.26
2023-10-27T12:51:01.144Z,74.18
2023-10-27T12:53:28.166Z,74.15
2023-10-27T12:55:58.077Z,74.15
2023-10-27T12:58:25.070Z,74.30
2023-10-27T13:00:51.636Z,74.16
2023-10-27T13:03:18.375Z,74.45
2023-10-27T13:05:45.385Z,74.40
2023-10-27T13:08:13.458Z,74.27
2023-10-27T13:10:40.603Z,74.41
2023-10-27T13:13:07.763Z,74.24
2023-10-27T13:15:35.160Z,74.38
2023-10-27T13:18:02.767Z,74.26
2023-10-27T13:20:29.462Z,74.37
2023-10-27T13:22:55.907Z,74.03
2023-10-27T13:25:22.414Z,74.05
2023-10-27T13:27:51.726Z,74.04
2023-10-27T13:30:18.438Z,73.95
2023-10-27T13:32:47.948Z,74.24
2023-10-27T13:35:14.511Z,73.89
2023-10-27T13:37:42.484Z,73.92
2023-10-27T13:40:09.521Z,74.03
2023-10-27T13:42:37.435Z,74.15
2023-10-27T13:45:04.127Z,74.06
2023-10-27T13:47:30.649Z,74.52
2023-10-27T13:49:57.148Z,73.71
2023-10-27T13:52:24.092Z,74.41
2023-10-27T13:54:51.210Z,74.25
2023-10-27T13:57:19.283Z,74.44
2023-10-27T13:59:45.747Z,74.54
2023-10-27T14:02:15.031Z,74.80
2023-10-27T14:04:41.938Z,74.72
2023-10-27T14:07:08.824Z,74.78
2023-10-27T14:09:35.350Z,74.69
2023-10-27T14:12:01.852Z,74.62
2023-10-27T14:16:39.344Z,74.85
2023-10-27T14:19:05.968Z,75.16
2023-10-27T14:21:38.599Z,75.22
2023-10-27T14:24:06.196Z,75.20
2023-10-27T14:26:32.644Z,75.47
2023-10-27T14:29:03.462Z,75.44
2023-10-27T14:31:37.088Z,75.38
2023-10-27T14:34:04.736Z,75.23
2023-10-27T14:36:31.212Z,75.27
2023-10-27T14:38:57.738Z,75.50
2023-10-27T14:41:25.875Z,75.52
2023-10-27T14:43:52.976Z,75.42
2023-10-27T14:46:20.038Z,75.53
2023-10-27T14:48:50.431Z,75.53
2023-10-27T14:51:17.603Z,75.43
2023-10-27T14:53:44.267Z,75.89
2023-10-27T14:56:11.689Z,75.85
2023-10-27T14:58:39.344Z,75.94
2023-10-27T15:01:08.151Z,75.90
2023-10-27T15:03:38.110Z,75.78
2023-10-27T15:06:10.092Z,75.79
2023-10-27T15:08:40.308Z,75.67
2023-10-27T15:11:08.606Z,75.75
2023-10-27T15:13:35.972Z,75.92
2023-10-27T15:16:11.271Z,75.83
2023-10-27T15:18:39.282Z,76.03
2023-10-27T15:21:09.920Z,75.94
2023-10-27T15:23:36.992Z,75.91
2023-10-27T15:26:05.009Z,76.17
2023-10-27T15:28:32.709Z,76.17
2023-10-27T15:31:04.445Z,76.38
2023-10-27T15:33:32.452Z,75.98
2023-10-27T15:36:06.266Z,75.88
2023-10-27T15:38:33.405Z,75.90
2023-10-27T15:41:00.887Z,75.88
2023-10-27T15:43:29.771Z,75.85
2023-10-27T15:46:01.636Z,75.45
2023-10-27T15:48:29.300Z,75.41
2023-10-27T15:51:03.503Z,75.49
2023-10-27T15:53:31.968Z,75.61
2023-10-27T15:55:58.612Z,75.49
2023-10-27T15:58:27.061Z,75.54
2023-10-27T16:00:55.627Z,75.72
2023-10-27T16:03:22.326Z,76.15
2023-10-27T16:05:49.883Z,75.96
2023-10-27T16:08:17.027Z,75.80
2023-10-27T16:10:43.580Z,75.71
2023-10-27T16:13:10.014Z,75.68
2023-10-27T16:15:37.468Z,75.65
2023-10-27T16:18:11.227Z,75.78
2023-10-27T16:20:39.069Z,75.87
2023-10-27T16:23:06.620Z,75.89
2023-10-27T16:25:34.449Z,76.03
2023-10-27T16:28:01.998Z,76.00
2023-10-27T16:30:30.612Z,76.08
2023-10-27T16:32:57.418Z,76.21
2023-10-27T16:35:24.366Z,76.32
2023-10-27T16:37:51.008Z,76.35
2023-10-27T16:40:18.166Z,76.20
2023-10-27T16:42:46.022Z,75.96
2023-10-27T16:45:12.466Z,76.00
2023-10-27T16:47:39.237Z,75.94
2023-10-27T16:50:07.206Z,75.79
2023-10-27T16:52:33.890Z,75.70
2023-10-27T16:55:01.674Z,75.82
2023-10-27T16:57:31.027Z,75.61
2023-10-27T16:59:57.499Z,74.99
2023-10-27T17:02:25.648Z,75.24
2023-10-27T17:04:55.943Z,75.26
2023-10-27T17:07:23.066Z,75.39
2023-10-27T17:09:52.191Z,75.30
2023-10-27T17:12:21.967Z,75.04
2023-10-27T17:14:49.784Z,75.29
2023-10-27T17:17:16.418Z,75.06
2023-10-27T17:19:43.229Z,75.06
2023-10-27T17:22:09.925Z,74.93
2023-10-27T17:24:37.119Z,75.02
2023-10-27T17:27:03.713Z,74.72
2023-10-27T17:29:30.429Z,74.74
2023-10-27T17:31:57.108Z,74.91
2023-10-27T17:34:23.981Z,75.00
2023-10-27T17:36:51.914Z,74.82
2023-10-27T17:39:18.546Z,75.15
2023-10-27T17:41:47.338Z,75.05
2023-10-27T17:44:14.113Z,75.02
2023-10-27T17:46:45.641Z,75.06
2023-10-27T17:49:12.888Z,75.11
2023-10-27T17:51:39.752Z,75.03
2023-10-27T17:54:06.818Z,75.00
2023-10-27T17:56:37.243Z,75.39
2023-10-27T17:59:04.371Z,75.29
2023-10-27T18:01:33.259Z,75.16
2023-10-27T18:04:00.173Z,75.17
2023-10-27T18:06:26.695Z,75.24
2023-10-27T18:08:53.147Z,75.44
2023-10-27T18:11:24.759Z,75.50
2023-10-27T18:13:51.969Z,75.49
2023-10-27T18:16:18.497Z,75.92
2023-10-27T18:18:45.035Z,75.62
2023-10-27T18:21:14.321Z,75.73
2023-10-27T18:23:41.958Z,75.65
2023-10-27T18:26:18.245Z,75.50
2023-10-27T18:28:48.002Z,75.82
2023-10-27T18:31:15.520Z,75.80
2023-10-27T18:33:42.091Z,75.78
2023-10-27T18:36:16.839Z,75.76
2023-10-27T18:38:45.931Z,75.90
2023-10-27T18:41:13.223Z,75.78
2023-10-27T18:43:42.086Z,75.94
2023-10-27T18:46:10.409Z,75.99
2023-10-27T18:48:38.313Z,75.93
2023-10-27T18:51:05.074Z,76.01
2023-10-27T18:53:35.046Z,75.94
2023-10-27T18:56:07.280Z,76.20
2023-10-27T18:58:37.268Z,76.09
2023-10-27T19:01:11.001Z,76.02
2023-10-27T19:03:40.256Z,76.24
2023-10-27T19:06:08.829Z,76.19
2023-10-27T19:08:35.676Z,76.20
2023-10-27T19:11:07.089Z,76.08
2023-10-27T19:13:35.153Z,76.16
2023-10-27T19:16:04.404Z,76.16
2023-10-27T19:18:32.416Z,76.27
2023-10-27T19:21:00.786Z,76.24
2023-10-27T19:23:27.379Z,76.33
2023-10-27T19:25:55.345Z,76.05
2023-10-27T19:28:22.563Z,76.06
2023-10-27T19:30:50.266Z,76.28
2023-10-27T19:33:16.660Z,76.28
2023-10-27T19:35:43.234Z,75.96
2023-10-27T19:38:10.307Z,76.28
2023-10-27T19:40:36.723Z,76.30
2023-10-27T19:43:03.293Z,76.34
2023-10-27T19:45:36.050Z,76.30
2023-10-27T19:48:03.985Z,76.21
2023-10-27T19:50:33.517Z,76.10
2023-10-27T19:53:01.441Z,76.22
2023-10-27T19:55:28.388Z,76.20
2023-10-27T19:57:54.811Z,76.25
2023-10-27T20:00:23.433Z,76.30
2023-10-27T20:02:50.730Z,76.06
2023-10-27T20:05:20.392Z,76.12
2023-10-27T20:07:47.298Z,76.32
2023-10-27T20:10:13.872Z,75.75
2023-10-27T20:12:40.344Z,76.63
2023-10-27T20:15:10.732Z,76.06
2023-10-27T20:17:40.645Z,76.30
2023-10-27T20:20:14.382Z,76.07
2023-10-27T20:22:45.455Z,76.19
2023-10-27T20:25:12.723Z,76.20
2023-10-27T20:27:40.491Z,76.01
2023-10-27T20:30:09.364Z,76.10
2023-10-27T20:32:35.780Z,76.15
2023-10-27T20:35:03.426Z,75.90
2023-10-27T20:37:29.877Z,76.12
2023-10-27T20:39:56.617Z,76.00
2023-10-27T20:42:23.101Z,76.15
2023-10-27T20:44:49.560Z,76.18
2023-10-27T20:47:16.157Z,76.15
2023-10-27T20:49:45.967Z,76.19
2023-10-27T20:52:15.459Z,76.17
2023-10-27T20:54:42.671Z,76.19
2023-10-27T20:57:09.137Z,76.10
2023-10-27T20:59:35.515Z,75.71
2023-10-27T21:02:01.955Z,76.40
2023-10-27T21:04:28.804Z,76.13
2023-10-27T21:06:55.404Z,76.03
2023-10-27T21:09:21.781Z,76.08
2023-10-27T21:11:48.280Z,75.99
2023-10-27T21:14:14.803Z,75.94
2023-10-27T21:16:41.415Z,75.87
2023-10-27T21:19:07.908Z,76.08
2023-10-27T21:21:34.350Z,75.82
2023-10-27T21:24:00.807Z,76.12
2023-10-27T21:26:27.238Z,75.93
2023-10-27T21:28:54.211Z,75.85
2023-10-27T21:31:20.714Z,75.73
2023-10-27T21:33:47.170Z,75.90
2023-10-27T21:36:13.787Z,75.53
2023-10-27T21:38:40.181Z,75.68
2023-10-27T21:41:07.268Z,75.73
2023-10-27T21:43:35.022Z,75.67
2023-10-27T21:46:01.719Z,75.79
2023-10-27T21:48:28.205Z,75.72
2023-10-27T21:51:05.666Z,75.66
2023-10-27T21:53:33.252Z,75.71
2023-10-27T21:55:59.863Z,75.58
2023-10-27T21:58:26.296Z,75.75
2023-10-27T22:00:54.390Z,75.71
2023-10-27T22:03:27.053Z,75.63
2023-10-27T22:05:54.660Z,75.69
2023-10-27T22:08:21.110Z,75.71
2023-10-27T22:10:48.168Z,75.65
2023-10-27T22:13:15.664Z,75.61
2023-10-27T22:15:42.366Z,75.59
2023-10-27T22:18:09.677Z,75.78
2023-10-27T22:20:36.483Z,75.52
2023-10-27T22:23:03.326Z,75.70
2023-10-27T22:25:30.820Z,75.61
2023-10-27T22:28:06.002Z,75.60
2023-10-27T22:30:36.365Z,75.52
2023-10-27T22:33:02.764Z,75.27
2023-10-27T22:35:29.241Z,75.46
2023-10-27T22:37:55.702Z,75.56
2023-10-27T22:40:22.126Z,75.69
2023-10-27T22:42:48.539Z,75.45
2023-10-27T22:45:16.024Z,75.85
2023-10-27T22:47:42.564Z,75.72
2023-10-27T22:50:10.624Z,75.45
2023-10-27T22:52:37.233Z,75.62
2023-10-27T22:55:03.825Z,75.67
2023-10-27T22:57:31.233Z,75.62
2023-10-27T22:59:57.704Z,75.57
2023-10-27T23:02:25.711Z,75.70
2023-10-27T23:04:52.433Z,75.59
2023-10-27T23:07:18.953Z,75.74
2023-10-27T23:09:45.849Z,75.58
2023-10-27T23:12:12.356Z,75.74
2023-10-27T23:14:38.743Z,75.65
2023-10-27T23:17:05.330Z,75.83
2023-10-27T23:19:32.742Z,75.82
2023-10-27T23:21:59.575Z,75.71
2023-10-27T23:24:26.986Z,76.07
2023-10-27T23:26:53.354Z,75.82
2023-10-27T23:29:20.309Z,75.73
2023-10-27T23:31:47.059Z,76.25
2023-10-27T23:34:13.516Z,75.95
2023-10-27T23:36:39.942Z,75.98
2023-10-27T23:39:06.729Z,76.25
2023-10-27T23:41:33.240Z,75.85
2023-10-27T23:43:59.640Z,75.82
2023-10-27T23:46:26.137Z,75.79
2023-10-27T23:48:52.662Z,75.98
2023-10-27T23:51:19.084Z,75.90
2023-10-27T23:53:45.494Z,75.80
2023-10-27T23:56:12.950Z,75.74
2023-10-27T23:58:39.645Z,75.91
